createdAt,value
2023-11-03T00:02:15.369Z,98767.83
2023-11-03T00:04:43.384Z,98769.63
2023-11-03T00:07:12.699Z,98767.30
2023-11-03T00:09:40.746Z,98758.22
2023-11-03T00:12:09.642Z,98758.52
2023-11-03T00:14:37.620Z,98760.34
2023-11-03T00:17:05.524Z,98766.30
2023-11-03T00:19:33.770Z,98771.23
2023-11-03T00:22:01.891Z,98768.13
2023-11-03T00:24:29.845Z,98774.34
2023-11-03T00:26:57.798Z,98767.08
2023-11-03T00:29:28.801Z,98779.77
2023-11-03T00:31:59.282Z,98778.23
2023-11-03T00:34:27.313Z,98767.11
2023-11-03T00:36:55.305Z,98767.90
2023-11-03T00:39:23.582Z,98765.54
2023-11-03T00:41:54.691Z,98773.36
2023-11-03T00:44:23.846Z,98782.94
2023-11-03T00:46:52.346Z,98788.89
2023-11-03T00:49:23.421Z,98788.40
2023-11-03T00:51:51.577Z,98783.76
2023-11-03T00:54:19.542Z,98785.82
2023-11-03T00:56:47.705Z,98792.81
2023-11-03T00:59:15.739Z,98781.44
2023-11-03T01:01:43.767Z,98772.12
2023-11-03T01:04:11.978Z,98765.64
2023-11-03T01:06:40.841Z,98764.37
2023-11-03T01:09:10.270Z,98777.05
2023-11-03T01:11:39.378Z,98770.55
2023-11-03T01:14:07.412Z,98769.01
2023-11-03T01:16:36.480Z,98765.90
2023-11-03T01:19:07.344Z,98767.47
2023-11-03T01:21:36.392Z,98759.16
2023-11-03T01:24:04.447Z,98755.83
2023-11-03T01:26:32.345Z,98750.37
2023-11-03T01:29:00.327Z,98754.26
2023-11-03T01:31:28.425Z,98762.53
2023-11-03T01:33:56.409Z,98763.32
2023-11-03T01:36:25.075Z,98761.48
2023-11-03T01:38:53.601Z,98766.39
2023-11-03T01:41:21.676Z,98767.99
2023-11-03T01:44:02.362Z,98777.02
2023-11-03T01:46:30.635Z,98778.82
2023-11-03T01:48:59.149Z,98771.07
2023-11-03T01:51:27.519Z,98765.90
2023-11-03T01:53:55.689Z,98770.55
2023-11-03T01:56:24.444Z,98769.53
2023-11-03T01:58:52.489Z,98765.64
2023-11-03T02:01:21.392Z,98764.82
2023-11-03T02:03:50.846Z,98763.29
2023-11-03T02:06:19.003Z,98754.72
2023-11-03T02:08:47.708Z,98769.99
2023-11-03T02:11:24.319Z,98772.05
2023-11-03T02:13:52.324Z,98765.28
2023-11-03T02:16:20.302Z,98753.38
2023-11-03T02:18:48.623Z,98751.80
2023-11-03T02:21:17.479Z,98750.24
2023-11-03T02:23:45.426Z,98745.53
2023-11-03T02:26:13.402Z,98744.22
2023-11-03T02:28:41.419Z,98736.99
2023-11-03T02:31:09.413Z,98733.37
2023-11-03T02:33:37.515Z,98741.34
2023-11-03T02:36:07.091Z,98740.85
2023-11-03T02:38:35.093Z,98743.44
2023-11-03T02:41:03.134Z,98734.64
2023-11-03T02:43:31.051Z,98742.65
2023-11-03T02:45:59.035Z,98755.63
2023-11-03T02:48:27.386Z,98761.88
2023-11-03T02:50:55.351Z,98769.40
2023-11-03T02:53:23.230Z,98780.32
2023-11-03T02:55:51.255Z,98786.27
2023-11-03T02:58:19.236Z,98784.18
2023-11-03T03:00:47.266Z,98789.15
2023-11-03T03:03:15.335Z,98796.90
2023-11-03T03:05:43.278Z,98790.95
2023-11-03T03:08:11.174Z,98795.63
2023-11-03T03:10:39.368Z,98788.37
2023-11-03T03:13:07.457Z,98780.09
2023-11-03T03:15:36.001Z,98761.45
2023-11-03T03:18:05.321Z,98767.41
2023-11-03T03:20:33.283Z,98762.50
2023-11-03T03:23:01.175Z,98765.61
2023-11-03T03:25:29.059Z,98777.80
2023-11-03T03:27:57.862Z,98780.36
2023-11-03T03:30:25.790Z,98784.77
2023-11-03T03:32:53.863Z,98777.51
2023-11-03T03:35:21.873Z,98778.79
2023-11-03T03:37:49.946Z,98783.98
2023-11-03T03:40:18.050Z,98791.21
2023-11-03T03:42:46.013Z,98800.27
2023-11-03T03:45:14.222Z,98808.58
2023-11-03T03:47:42.373Z,98802.88
2023-11-03T03:50:10.868Z,98813.25
2023-11-03T03:52:38.822Z,98813.77
2023-11-03T03:55:06.887Z,98825.16
2023-11-03T03:57:35.126Z,98832.64
2023-11-03T04:00:03.222Z,98829.80
2023-11-03T04:02:31.271Z,98836.01
2023-11-03T04:04:59.557Z,98838.10
2023-11-03T04:07:27.484Z,98831.37
2023-11-03T04:09:55.425Z,98828.75
2023-11-03T04:12:23.505Z,98817.38
2023-11-03T04:14:51.563Z,98825.91
2023-11-03T04:17:19.545Z,98838.59
2023-11-03T04:19:47.453Z,98840.69
2023-11-03T04:22:15.372Z,98831.37
2023-11-03T04:24:43.366Z,98827.22
2023-11-03T04:27:11.350Z,98829.57
2023-11-03T04:29:39.254Z,98825.41
2023-11-03T04:32:07.559Z,98832.64
2023-11-03T04:34:35.686Z,98838.86
2023-11-03T04:37:03.705Z,98835.75
2023-11-03T04:39:31.664Z,98847.39
2023-11-03T04:41:59.634Z,98847.16
2023-11-03T04:44:27.564Z,98845.59
2023-11-03T04:46:55.529Z,98848.44
2023-11-03T04:49:23.569Z,98858.02
2023-11-03T04:51:52.186Z,98855.44
2023-11-03T04:54:20.120Z,98861.35
2023-11-03T04:56:48.450Z,98856.71
2023-11-03T04:59:16.393Z,98856.97
2023-11-03T05:01:44.314Z,98861.09
2023-11-03T05:04:12.221Z,98852.82
2023-11-03T05:06:40.197Z,98854.09
2023-11-03T05:09:08.984Z,98857.98
2023-11-03T05:11:36.873Z,98861.35
2023-11-03T05:14:04.829Z,98858.73
2023-11-03T05:16:32.735Z,98858.21
2023-11-03T05:19:05.120Z,98866.48
2023-11-03T05:21:36.127Z,98872.44
2023-11-03T05:24:05.219Z,98864.16
2023-11-03T05:26:36.160Z,98865.44
2023-11-03T05:29:19.135Z,98867.50
2023-11-03T05:31:54.072Z,98862.59
2023-11-03T05:34:24.414Z,98849.16
2023-11-03T05:36:57.834Z,98857.17
2023-11-03T05:39:35.548Z,98850.46
2023-11-03T05:42:06.894Z,98848.66
2023-11-03T05:44:38.905Z,98849.45
2023-11-03T05:47:09.075Z,98835.98
2023-11-03T05:49:37.606Z,98838.82
2023-11-03T05:52:05.906Z,98840.91
2023-11-03T05:54:36.625Z,98853.87
2023-11-03T05:57:04.552Z,98850.23
2023-11-03T05:59:34.282Z,98856.16
2023-11-03T06:02:03.510Z,98847.39
2023-11-03T06:04:31.465Z,98855.41
2023-11-03T06:06:59.540Z,98868.58
2023-11-03T06:09:27.451Z,98865.21
2023-11-03T06:11:55.416Z,98877.38
2023-11-03T06:14:23.370Z,98882.28
2023-11-03T06:16:51.471Z,98884.34
2023-11-03T06:19:19.559Z,98889.28
2023-11-03T06:21:47.650Z,98892.88
2023-11-03T06:24:15.629Z,98903.21
2023-11-03T06:26:43.660Z,98904.52
2023-11-03T06:29:11.643Z,98902.46
2023-11-03T06:31:39.585Z,98912.01
2023-11-03T06:34:08.863Z,98920.25
2023-11-03T06:36:44.781Z,98925.41
2023-11-03T06:39:17.932Z,98933.16
2023-11-03T06:41:51.958Z,98931.37
2023-11-03T06:44:19.922Z,98936.76
2023-11-03T06:46:47.849Z,98938.56
2023-11-03T06:49:18.733Z,98942.45
2023-11-03T06:51:46.841Z,98942.94
2023-11-03T06:54:14.929Z,98944.74
2023-11-03T06:56:44.695Z,98947.59
2023-11-03T06:59:12.639Z,98955.83
2023-11-03T07:01:40.658Z,98956.09
2023-11-03T07:04:10.298Z,98957.66
2023-11-03T07:06:38.727Z,98953.77
2023-11-03T07:11:53.836Z,98963.28
2023-11-03T07:14:32.743Z,98956.05
2023-11-03T07:17:15.345Z,98958.63
2023-11-03T07:19:51.722Z,98955.79
2023-11-03T07:22:26.198Z,98963.02
2023-11-03T07:24:57.120Z,98964.88
2023-11-03T07:27:25.067Z,98970.54
2023-11-03T07:29:55.875Z,98970.84
2023-11-03T07:32:25.441Z,98973.68
2023-11-03T07:34:54.101Z,98973.38
2023-11-03T07:37:23.436Z,98980.64
2023-11-03T07:39:52.414Z,98982.18
2023-11-03T07:42:24.780Z,98987.64
2023-11-03T07:44:52.820Z,98990.52
2023-11-03T07:47:20.967Z,98990.78
2023-11-03T07:49:48.939Z,98998.53
2023-11-03T07:52:16.900Z,99007.85
2023-11-03T07:54:46.439Z,99004.25
2023-11-03T07:57:15.157Z,99011.77
2023-11-03T07:59:43.924Z,99011.05
2023-11-03T08:02:12.567Z,99011.97
2023-11-03T08:04:42.848Z,99016.41
2023-11-03T08:07:10.936Z,99020.54
2023-11-03T08:09:39.113Z,99028.35
2023-11-03T08:12:09.484Z,99034.08
2023-11-03T08:14:37.773Z,99029.14
2023-11-03T08:17:06.487Z,99038.49
2023-11-03T08:19:34.681Z,99042.35
2023-11-03T08:22:02.760Z,99049.64
2023-11-03T08:24:30.798Z,99045.98
2023-11-03T08:26:58.738Z,99045.98
2023-11-03T08:29:26.659Z,99050.63
2023-11-03T08:31:54.764Z,99059.16
2023-11-03T08:34:22.744Z,99052.45
2023-11-03T08:36:50.785Z,99056.05
2023-11-03T08:39:27.646Z,99061.74
2023-11-03T08:41:58.944Z,99067.46
2023-11-03T08:44:27.216Z,99060.70
2023-11-03T08:46:55.255Z,99050.10
2023-11-03T08:49:23.919Z,99059.68
2023-11-03T08:51:53.862Z,99062.52
2023-11-03T08:54:21.849Z,99067.20
2023-11-03T08:56:50.394Z,99061.25
2023-11-03T08:59:18.420Z,99068.48
2023-11-03T09:01:46.537Z,99063.02
2023-11-03T09:04:14.476Z,99063.77
2023-11-03T09:06:42.470Z,99065.05
2023-11-03T09:09:10.585Z,99066.35
2023-11-03T09:11:38.644Z,99066.35
2023-11-03T09:14:08.825Z,99068.45
2023-11-03T09:16:39.498Z,99064.55
2023-11-03T09:19:07.606Z,99073.91
2023-11-03T09:21:35.649Z,99067.43
2023-11-03T09:24:03.820Z,99080.38
2023-11-03T09:26:32.359Z,99079.34
2023-11-03T09:29:00.346Z,99069.78
2023-11-03T09:31:28.350Z,99075.21
2023-11-03T09:33:58.201Z,99071.59
2023-11-03T09:36:26.200Z,99070.83
2023-11-03T09:38:54.160Z,99070.57
2023-11-03T09:41:22.418Z,99062.55
2023-11-03T09:43:50.456Z,99072.70
2023-11-03T09:46:20.542Z,99068.28
2023-11-03T09:48:49.862Z,99069.06
2023-11-03T09:51:18.029Z,99067.76
2023-11-03T09:53:53.537Z,99073.74
2023-11-03T09:56:21.774Z,99075.02
2023-11-03T09:58:51.050Z,99068.28
2023-11-03T10:01:19.457Z,99067.49
2023-11-03T10:03:48.180Z,99064.91
2023-11-03T10:06:16.151Z,99068.54
2023-11-03T10:08:46.736Z,99069.30
2023-11-03T10:11:15.032Z,99066.22
2023-11-03T10:13:43.001Z,99071.16
2023-11-03T10:16:11.330Z,99066.22
2023-11-03T10:18:40.290Z,99063.90
2023-11-03T10:21:11.390Z,99063.90
2023-11-03T10:23:39.841Z,99058.96
2023-11-03T10:26:08.544Z,99066.22
2023-11-03T10:28:37.038Z,99064.42
2023-11-03T10:31:06.747Z,99062.36
2023-11-03T10:33:34.732Z,99064.16
2023-11-03T10:36:04.536Z,99061.80
2023-11-03T10:38:32.597Z,99066.74
2023-11-03T10:41:04.557Z,99063.90
2023-11-03T10:43:39.778Z,99069.33
2023-11-03T10:46:17.952Z,99071.39
2023-11-03T10:48:48.970Z,99073.74
2023-11-03T10:51:33.669Z,99076.06
2023-11-03T10:54:05.470Z,99071.16
2023-11-03T10:56:48.947Z,99074.76
2023-11-03T10:59:30.404Z,99068.31
2023-11-03T11:02:19.021Z,99061.58
2023-11-03T11:05:06.574Z,99070.90
2023-11-03T11:07:37.823Z,99062.36
2023-11-03T11:10:06.313Z,99064.91
2023-11-03T11:12:53.640Z,99058.99
2023-11-03T11:15:22.337Z,99057.42
2023-11-03T11:17:50.487Z,99053.27
2023-11-03T11:20:32.197Z,99062.36
2023-11-03T11:23:08.533Z,99058.47
2023-11-03T11:25:37.277Z,99067.82
2023-11-03T11:28:05.583Z,99058.47
2023-11-03T11:30:36.777Z,99063.44
2023-11-03T11:33:04.994Z,99061.84
2023-11-03T11:35:40.896Z,99064.68
2023-11-03T11:38:09.046Z,99063.93
2023-11-03T11:40:38.753Z,99067.82
2023-11-03T11:43:18.506Z,99059.52
2023-11-03T11:45:51.315Z,99055.89
2023-11-03T11:48:19.577Z,99056.67
2023-11-03T11:50:48.900Z,99053.56
2023-11-03T11:53:17.045Z,99052.78
2023-11-03T11:55:46.447Z,99055.89
2023-11-03T11:58:16.009Z,99053.83
2023-11-03T12:00:44.445Z,99070.66
2023-11-03T12:03:12.502Z,99061.31
2023-11-03T12:05:40.600Z,99055.63
2023-11-03T12:08:08.567Z,99060.79
2023-11-03T12:10:36.633Z,99056.15
2023-11-03T12:13:04.633Z,99054.32
2023-11-03T12:15:32.802Z,99057.69
2023-11-03T12:18:05.579Z,99055.10
2023-11-03T12:20:34.307Z,99057.45
2023-11-03T12:23:02.300Z,99048.89
2023-11-03T12:25:30.996Z,99056.15
2023-11-03T12:28:00.732Z,99048.59
2023-11-03T12:30:28.717Z,99050.46
2023-11-03T12:32:59.549Z,99053.30
2023-11-03T12:35:33.705Z,99055.63
2023-11-03T12:38:01.851Z,99057.72
2023-11-03T12:40:29.873Z,99062.63
2023-11-03T12:43:14.918Z,99067.27
2023-11-03T12:45:50.156Z,99065.73
2023-11-03T12:48:22.802Z,99068.87
2023-11-03T12:50:55.628Z,99073.28
2023-11-03T12:53:25.561Z,99065.24
2023-11-03T12:56:01.890Z,99072.73
2023-11-03T12:58:30.000Z,99070.66
2023-11-03T13:01:00.388Z,99073.77
2023-11-03T13:03:30.934Z,99076.36
2023-11-03T13:06:02.228Z,99068.84
2023-11-03T13:08:30.211Z,99079.46
2023-11-03T13:10:58.499Z,99070.14
2023-11-03T13:13:26.528Z,99078.71
2023-11-03T13:15:54.507Z,99079.73
2023-11-03T13:18:25.433Z,99078.98
2023-11-03T13:20:54.020Z,99078.98
2023-11-03T13:23:22.537Z,99075.31
2023-11-03T13:25:50.738Z,99089.30
2023-11-03T13:28:18.693Z,99092.67
2023-11-03T13:30:47.400Z,99094.73
2023-11-03T13:33:15.314Z,99091.14
2023-11-03T13:35:43.308Z,99095.78
2023-11-03T13:38:11.331Z,99098.10
2023-11-03T13:40:39.246Z,99097.58
2023-11-03T13:43:08.483Z,99107.98
2023-11-03T13:45:36.968Z,99111.12
2023-11-03T13:48:07.429Z,99114.19
2023-11-03T13:50:35.695Z,99113.67
2023-11-03T13:53:04.818Z,99119.39
2023-11-03T13:55:32.972Z,99116.32
2023-11-03T13:58:02.355Z,99124.59
2023-11-03T14:00:30.434Z,99117.33
2023-11-03T14:02:58.375Z,99114.48
2023-11-03T14:05:26.271Z,99116.05
2023-11-03T14:07:54.750Z,99119.95
2023-11-03T14:10:22.815Z,99128.22
2023-11-03T14:12:52.329Z,99128.22
2023-11-03T14:15:20.900Z,99125.37
2023-11-03T14:17:48.981Z,99123.55
2023-11-03T14:20:17.676Z,99125.63
2023-11-03T14:22:45.705Z,99136.52
2023-11-03T14:25:14.494Z,99143.26
2023-11-03T14:27:43.892Z,99139.63
2023-11-03T14:30:14.320Z,99147.94
2023-11-03T14:32:42.944Z,99155.98
2023-11-03T14:35:14.370Z,99147.68
2023-11-03T14:37:44.058Z,99150.78
2023-11-03T14:40:17.017Z,99158.56
2023-11-03T14:42:48.324Z,99147.94
2023-11-03T14:45:18.841Z,99156.24
2023-11-03T14:47:47.166Z,99161.15
2023-11-03T14:50:15.293Z,99167.13
2023-11-03T14:52:44.105Z,99168.67
2023-11-03T14:55:13.553Z,99167.88
2023-11-03T14:57:41.542Z,99165.04
2023-11-03T15:00:13.741Z,99170.50
2023-11-03T15:02:44.757Z,99166.35
2023-11-03T15:05:13.600Z,99173.09
2023-11-03T15:07:42.715Z,99171.77
2023-11-03T15:10:13.661Z,99176.19
2023-11-03T15:12:46.089Z,99177.53
2023-11-03T15:15:15.533Z,99182.17
2023-11-03T15:17:46.558Z,99186.88
2023-11-03T15:20:16.241Z,99176.23
2023-11-03T15:22:44.267Z,99183.74
2023-11-03T15:25:16.814Z,99190.48
2023-11-03T15:27:47.277Z,99184.27
2023-11-03T15:30:20.094Z,99188.16
2023-11-03T15:32:49.125Z,99195.68
2023-11-03T15:35:18.178Z,99187.87
2023-11-03T15:37:46.560Z,99194.11
2023-11-03T15:40:17.442Z,99193.33
2023-11-03T15:42:45.710Z,99192.57
2023-11-03T15:45:15.694Z,99192.57
2023-11-03T15:47:49.689Z,99197.22
2023-11-03T15:50:21.825Z,99198.79
2023-11-03T15:52:53.406Z,99203.46
2023-11-03T15:55:21.602Z,99208.40
2023-11-03T15:57:52.636Z,99204.25
2023-11-03T16:00:25.396Z,99214.35
2023-11-03T16:02:54.426Z,99216.41
2023-11-03T16:05:22.602Z,99221.61
2023-11-03T16:07:50.843Z,99219.29
2023-11-03T16:10:19.497Z,99221.88
2023-11-03T16:12:49.681Z,99216.41
2023-11-03T16:15:18.364Z,99238.23
2023-11-03T16:17:46.741Z,99229.91
2023-11-03T16:20:20.635Z,99236.16
2023-11-03T16:22:48.737Z,99238.75
2023-11-03T16:25:24.621Z,99247.31
2023-11-03T16:27:52.593Z,99249.38
2023-11-03T16:30:22.336Z,99246.79
2023-11-03T16:32:51.032Z,99245.22
2023-11-03T16:35:20.300Z,99255.81
2023-11-03T16:37:48.367Z,99251.44
2023-11-03T16:40:22.564Z,99259.74
2023-11-03T16:42:53.476Z,99258.43
2023-11-03T16:45:21.680Z,99263.86
2023-11-03T16:47:50.441Z,99272.69
2023-11-03T16:50:21.312Z,99278.90
2023-11-03T16:52:52.350Z,99282.01
2023-11-03T16:55:23.739Z,99279.69
2023-11-03T16:57:52.902Z,99283.80
2023-11-03T17:00:26.713Z,99280.70
2023-11-03T17:02:58.145Z,99285.90
2023-11-03T17:05:26.303Z,99286.39
2023-11-03T17:07:56.983Z,99285.12
2023-11-03T17:10:27.823Z,99290.55
2023-11-03T17:13:00.205Z,99291.10
2023-11-03T17:15:33.328Z,99298.36
2023-11-03T17:18:02.405Z,99295.52
2023-11-03T17:20:36.768Z,99302.77
2023-11-03T17:23:07.547Z,99302.51
2023-11-03T17:25:39.745Z,99299.66
2023-11-03T17:28:09.215Z,99303.52
2023-11-03T17:30:37.646Z,99306.37
2023-11-03T17:33:08.571Z,99309.73
2023-11-03T17:35:37.097Z,99308.17
2023-11-03T17:38:08.154Z,99313.86
2023-11-03T17:40:39.414Z,99310.52
2023-11-03T17:43:07.610Z,99317.00
2023-11-03T17:45:36.428Z,99316.45
2023-11-03T17:48:05.625Z,99310.49
2023-11-03T17:50:33.599Z,99320.07
2023-11-03T17:53:01.618Z,99320.59
2023-11-03T17:55:29.767Z,99312.52
2023-11-03T17:57:58.249Z,99317.23
2023-11-03T18:00:30.282Z,99323.15
2023-11-03T18:03:01.233Z,99324.45
2023-11-03T18:05:29.409Z,99319.48
2023-11-03T18:08:00.435Z,99330.90
2023-11-03T18:10:28.424Z,99327.52
2023-11-03T18:12:59.390Z,99335.31
2023-11-03T18:15:28.435Z,99344.89
2023-11-03T18:17:59.158Z,99340.21
2023-11-03T18:20:29.378Z,99343.81
2023-11-03T18:23:04.204Z,99348.98
2023-11-03T18:25:32.177Z,99350.02
2023-11-03T18:28:00.155Z,99348.91
2023-11-03T18:30:32.685Z,99347.34
2023-11-03T18:33:07.461Z,99354.30
2023-11-03T18:35:37.184Z,99354.77
2023-11-03T18:38:19.610Z,99348.23
2023-11-03T18:40:47.581Z,99347.18
2023-11-03T18:43:17.334Z,99352.25
2023-11-03T18:45:46.754Z,99360.26
2023-11-03T18:48:16.263Z,99369.58
2023-11-03T18:51:24.683Z,99369.84
2023-11-03T18:55:21.658Z,99372.42
2023-11-03T18:57:45.390Z,99376.02
2023-11-03T19:00:24.372Z,99377.82
2023-11-03T19:04:22.022Z,99376.74
2023-11-03T19:06:03.465Z,99385.02
2023-11-03T19:07:53.126Z,99384.98
2023-11-03T19:10:22.575Z,99390.38
2023-11-03T19:12:53.563Z,99387.23
2023-11-03T19:15:22.152Z,99393.84
2023-11-03T19:17:50.269Z,99397.15
2023-11-03T19:20:18.259Z,99406.20
2023-11-03T19:22:49.360Z,99414.18
2023-11-03T19:25:17.857Z,99416.51
2023-11-03T19:27:46.725Z,99419.58
2023-11-03T19:30:15.211Z,99412.55
2023-11-03T19:32:43.346Z,99418.47
2023-11-03T19:35:17.942Z,99417.68
2023-11-03T19:37:46.700Z,99423.38
2023-11-03T19:40:14.898Z,99427.49
2023-11-03T19:42:51.773Z,99425.14
2023-11-03T19:45:20.189Z,99433.18
2023-11-03T19:47:51.493Z,99432.40
2023-11-03T19:50:22.248Z,99430.83
2023-11-03T19:52:55.435Z,99442.99
2023-11-03T19:55:32.171Z,99435.77
2023-11-03T19:58:00.673Z,99432.62
2023-11-03T20:00:32.492Z,99436.45
2023-11-03T20:03:03.351Z,99430.27
2023-11-03T20:05:31.263Z,99431.28
2023-11-03T20:08:04.897Z,99435.70
2023-11-03T20:10:35.356Z,99432.56
2023-11-03T20:13:06.788Z,99432.33
2023-11-03T20:15:38.589Z,99431.52
2023-11-03T20:18:09.966Z,99438.48
2023-11-03T20:20:38.065Z,99431.22
2023-11-03T20:23:07.163Z,99426.28
2023-11-03T20:25:35.131Z,99420.07
2023-11-03T20:28:03.163Z,99427.03
2023-11-03T20:30:31.172Z,99435.77
2023-11-03T20:32:59.705Z,99439.59
2023-11-03T20:35:28.271Z,99437.47
2023-11-03T20:37:57.153Z,99437.14
2023-11-03T20:40:25.134Z,99436.26
2023-11-03T20:42:53.176Z,99433.87
2023-11-03T20:45:21.091Z,99443.35
2023-11-03T20:47:49.685Z,99441.72
2023-11-03T20:50:19.553Z,99438.77
2023-11-03T20:52:47.490Z,99432.52
2023-11-03T20:55:15.493Z,99443.58
2023-11-03T20:57:43.771Z,99443.09
2023-11-03T21:00:13.591Z,99444.37
2023-11-03T21:02:42.280Z,99444.85
2023-11-03T21:05:12.384Z,99445.64
2023-11-03T21:07:40.428Z,99444.10
2023-11-03T21:10:08.949Z,99445.64
2023-11-03T21:12:36.992Z,99446.33
2023-11-03T21:15:05.198Z,99450.97
2023-11-03T21:17:33.100Z,99447.54
2023-11-03T21:20:01.190Z,99448.71
2023-11-03T21:22:29.199Z,99447.96
2023-11-03T21:24:57.364Z,99449.23
2023-11-03T21:27:25.388Z,99453.13
2023-11-03T21:29:53.472Z,99455.02
2023-11-03T21:32:23.152Z,99459.18
2023-11-03T21:34:51.545Z,99460.55
2023-11-03T21:37:19.622Z,99468.40
2023-11-03T21:39:49.571Z,99469.15
2023-11-03T21:42:18.032Z,99462.97
2023-11-03T21:44:45.996Z,99464.84
2023-11-03T21:47:14.061Z,99472.06
2023-11-03T21:49:42.586Z,99473.66
2023-11-03T21:52:10.816Z,99471.41
2023-11-03T21:54:40.136Z,99465.62
2023-11-03T21:57:08.896Z,99476.02
2023-11-03T21:59:36.845Z,99479.35
2023-11-03T22:02:07.681Z,99472.32
2023-11-03T22:04:35.840Z,99473.27
2023-11-03T22:07:07.837Z,99470.95
2023-11-03T22:09:37.029Z,99464.97
2023-11-03T22:12:05.203Z,99468.01
2023-11-03T22:14:33.521Z,99469.38
2023-11-03T22:17:01.598Z,99462.71
2023-11-03T22:19:30.688Z,99459.37
2023-11-03T22:21:58.883Z,99467.38
2023-11-03T22:24:26.769Z,99472.78
2023-11-03T22:26:54.680Z,99463.69
2023-11-03T22:29:23.190Z,99476.12
2023-11-03T22:31:52.213Z,99470.16
2023-11-03T22:34:23.498Z,99469.58
2023-11-03T22:36:51.509Z,99472.12
2023-11-03T22:39:21.577Z,99461.96
2023-11-03T22:41:49.801Z,99460.68
2023-11-03T22:44:17.975Z,99462.74
2023-11-03T22:46:45.944Z,99465.09
2023-11-03T22:49:14.044Z,99468.98
2023-11-03T22:51:42.790Z,99475.66
2023-11-03T22:54:10.721Z,99484.39
2023-11-03T22:56:38.922Z,99488.80
2023-11-03T22:59:06.937Z,99498.87
2023-11-03T23:01:41.554Z,99490.57
2023-11-03T23:04:12.081Z,99494.46
2023-11-03T23:06:41.829Z,99494.79
2023-11-03T23:09:13.884Z,99497.63
2023-11-03T23:11:41.856Z,99497.90
2023-11-03T23:14:09.974Z,99507.02
2023-11-03T23:16:38.042Z,99504.44
2023-11-03T23:19:06.487Z,99500.05
2023-11-03T23:21:35.376Z,99504.77
2023-11-03T23:24:03.764Z,99508.36
2023-11-03T23:26:31.661Z,99506.89
2023-11-03T23:29:00.166Z,99512.09
2023-11-03T23:31:28.177Z,99509.54
2023-11-03T23:33:56.251Z,99512.67
2023-11-03T23:36:25.191Z,99511.70
2023-11-03T23:38:54.791Z,99513.55
2023-11-03T23:41:24.629Z,99511.79
2023-11-03T23:43:55.563Z,99510.02
2023-11-03T23:46:27.209Z,99509.34
2023-11-03T23:48:55.290Z,99507.34
2023-11-03T23:51:23.235Z,99513.82
2023-11-03T23:53:51.357Z,99507.41
2023-11-03T23:56:19.505Z,99514.67
2023-11-03T23:58:50.156Z,99514.48
